createdAt,value
2018-04-10T00:01:07.923Z,42.70
2018-04-10T00:04:13.096Z,42.70
2018-04-10T00:07:17.730Z,42.60
2018-04-10T00:10:22.360Z,42.60
2018-04-10T00:13:27.538Z,42.70
2018-04-10T00:16:31.961Z,42.60
2018-04-10T00:19:37.129Z,42.60
2018-04-10T00:22:41.612Z,42.60
2018-04-10T00:25:46.060Z,42.70
2018-04-10T00:28:50.511Z,42.70
2018-04-10T00:31:54.970Z,42.70
2018-04-10T00:35:00.223Z,42.70
2018-04-10T00:38:05.384Z,42.90
2018-04-10T00:41:10.574Z,42.90
2018-04-10T00:44:14.994Z,42.70
2018-04-10T00:47:19.500Z,42.70
2018-04-10T00:50:23.931Z,42.70
2018-04-10T00:53:37.705Z,42.80
2018-04-10T00:56:43.593Z,42.80
2018-04-10T00:59:48.760Z,42.60
2018-04-10T01:02:53.175Z,42.50
2018-04-10T01:05:57.619Z,42.60
2018-04-10T01:09:02.813Z,42.50
2018-04-10T01:12:07.213Z,42.50
2018-04-10T01:15:12.397Z,42.50
2018-04-10T01:18:16.806Z,42.50
2018-04-10T01:21:21.236Z,42.50
2018-04-10T01:24:25.673Z,42.50
2018-04-10T01:27:30.139Z,42.40
2018-04-10T01:30:35.319Z,42.50
2018-04-10T01:33:39.718Z,42.40
2018-04-10T01:36:44.900Z,43.10
2018-04-10T01:39:50.073Z,42.60
2018-04-10T01:42:54.481Z,42.50
2018-04-10T01:45:59.665Z,43.20
2018-04-10T01:49:04.071Z,43.10
2018-04-10T01:52:09.246Z,42.90
2018-04-10T01:55:13.673Z,42.90
2018-04-10T01:58:18.823Z,43.20
2018-04-10T02:01:23.989Z,43.00
2018-04-10T02:04:28.404Z,42.90
2018-04-10T02:07:32.847Z,42.80
2018-04-10T02:10:37.271Z,42.70
2018-04-10T02:13:41.676Z,43.00
2018-04-10T02:16:46.115Z,42.40
2018-04-10T02:19:50.632Z,42.10
2018-04-10T02:22:55.064Z,41.80
2018-04-10T02:25:59.508Z,41.80
2018-04-10T02:29:03.917Z,41.80
2018-04-10T02:32:08.374Z,41.80
2018-04-10T02:35:13.548Z,41.70
2018-04-10T02:38:17.969Z,41.60
2018-04-10T02:41:23.196Z,41.70
2018-04-10T02:44:27.621Z,41.60
2018-04-10T02:47:32.128Z,41.70
2018-04-10T02:50:36.568Z,41.60
2018-04-10T02:53:40.979Z,41.60
2018-04-10T02:56:46.152Z,41.60
2018-04-10T02:59:50.558Z,41.50
2018-04-10T03:02:55.044Z,41.60
2018-04-10T03:05:59.484Z,41.80
2018-04-10T03:09:03.903Z,41.30
2018-04-10T03:12:08.343Z,41.30
2018-04-10T03:15:12.760Z,41.60
2018-04-10T03:18:17.937Z,41.30
2018-04-10T03:21:22.374Z,41.30
2018-04-10T03:24:26.778Z,41.20
2018-04-10T03:27:31.205Z,41.10
2018-04-10T03:30:35.634Z,41.10
2018-04-10T03:33:40.066Z,41.30
2018-04-10T03:36:44.528Z,41.10
2018-04-10T03:39:48.921Z,41.10
2018-04-10T03:42:53.358Z,41.00
2018-04-10T03:45:57.782Z,40.90
2018-04-10T03:49:02.213Z,40.90
2018-04-10T03:52:07.390Z,41.10
2018-04-10T03:55:11.794Z,41.10
2018-04-10T03:58:16.970Z,41.20
2018-04-10T04:01:21.403Z,41.10
2018-04-10T04:04:26.545Z,41.50
2018-04-10T04:07:30.989Z,41.60
2018-04-10T04:10:36.141Z,40.80
2018-04-10T04:13:40.571Z,40.80
2018-04-10T04:17:08.771Z,40.80
2018-04-10T04:20:36.987Z,40.60
2018-04-10T04:23:42.163Z,40.10
2018-04-10T04:26:46.593Z,40.10
2018-04-10T04:29:51.026Z,39.70
2018-04-10T04:32:56.209Z,39.60
2018-04-10T04:36:00.626Z,39.60
2018-04-10T04:39:05.063Z,39.90
2018-04-10T04:42:09.495Z,39.40
2018-04-10T04:45:14.643Z,40.60
2018-04-10T04:48:19.825Z,40.90
2018-04-10T04:51:24.230Z,40.90
2018-04-10T04:54:29.406Z,41.30
2018-04-10T04:57:34.689Z,41.60
2018-04-10T05:00:39.094Z,41.60
2018-04-10T05:03:44.269Z,41.70
2018-04-10T05:06:48.700Z,41.60
2018-04-10T05:09:53.106Z,41.90
2018-04-10T05:12:57.553Z,41.80
2018-04-10T05:16:01.961Z,41.60
2018-04-10T05:19:06.397Z,41.80
2018-04-10T05:22:10.830Z,41.30
2018-04-10T05:25:15.233Z,41.20
2018-04-10T05:28:19.663Z,40.90
2018-04-10T05:31:24.812Z,40.30
2018-04-10T05:34:29.991Z,40.30
2018-04-10T05:37:34.431Z,40.30
2018-04-10T05:40:38.833Z,40.20
2018-04-10T05:43:43.273Z,40.00
2018-04-10T05:46:47.681Z,39.80
2018-04-10T05:49:52.110Z,40.10
2018-04-10T05:52:56.548Z,39.60
2018-04-10T05:56:00.966Z,39.70
2018-04-10T05:59:05.394Z,39.60
2018-04-10T06:02:09.842Z,39.90
2018-04-10T06:05:14.253Z,39.90
2018-04-10T06:08:18.678Z,40.00
2018-04-10T06:11:23.148Z,40.10
2018-04-10T06:14:28.330Z,40.80
2018-04-10T06:17:32.776Z,40.70
2018-04-10T06:20:37.186Z,40.80
2018-04-10T06:23:42.353Z,40.90
2018-04-10T06:26:46.769Z,40.80
2018-04-10T06:29:51.940Z,41.20
2018-04-10T06:32:56.577Z,41.20
2018-04-10T06:36:01.741Z,40.30
2018-04-10T06:39:07.029Z,40.30
2018-04-10T06:42:11.439Z,40.20
2018-04-10T06:45:15.869Z,40.30
2018-04-10T06:48:21.041Z,40.20
2018-04-10T06:51:25.450Z,40.10
2018-04-10T06:54:30.626Z,40.10
2018-04-10T06:57:35.041Z,40.00
2018-04-10T07:00:39.470Z,40.10
2018-04-10T07:03:43.902Z,40.60
2018-04-10T07:06:48.314Z,40.10
2018-04-10T07:09:52.742Z,39.90
2018-04-10T07:12:57.197Z,40.20
2018-04-10T07:16:01.622Z,40.20
2018-04-10T07:19:06.051Z,40.30
2018-04-10T07:22:10.458Z,40.40
2018-04-10T07:25:15.635Z,40.60
2018-04-10T07:28:20.064Z,40.50
2018-04-10T07:31:25.212Z,40.80
2018-04-10T07:34:30.390Z,41.00
2018-04-10T07:37:34.797Z,40.90
2018-04-10T07:40:39.233Z,40.80
2018-04-10T07:43:43.662Z,41.10
2018-04-10T07:46:48.083Z,40.90
2018-04-10T07:49:52.566Z,41.10
2018-04-10T07:52:57.734Z,40.50
2018-04-10T07:56:02.165Z,40.40
2018-04-10T07:59:06.659Z,40.30
2018-04-10T08:02:11.075Z,40.20
2018-04-10T08:05:15.498Z,40.10
2018-04-10T08:08:19.958Z,39.90
2018-04-10T08:11:24.373Z,39.90
2018-04-10T08:14:28.886Z,39.70
2018-04-10T08:17:33.334Z,39.60
2018-04-10T08:20:38.501Z,40.10
2018-04-10T08:23:43.682Z,39.90
2018-04-10T08:26:48.102Z,39.90
2018-04-10T08:29:52.593Z,40.00
2018-04-10T08:32:57.016Z,40.10
2018-04-10T08:36:01.452Z,39.90
2018-04-10T08:39:08.675Z,40.10
2018-04-10T08:42:13.108Z,40.00
2018-04-10T08:45:17.551Z,40.10
2018-04-10T08:48:21.962Z,40.10
2018-04-10T08:51:26.401Z,39.80
2018-04-10T08:54:30.894Z,39.60
2018-04-10T08:57:35.306Z,39.10
2018-04-10T09:00:39.755Z,39.30
2018-04-10T09:03:44.183Z,38.90
2018-04-10T09:06:48.589Z,38.60
2018-04-10T09:09:53.021Z,38.50
2018-04-10T09:12:57.439Z,38.40
2018-04-10T09:16:02.625Z,38.00
2018-04-10T09:19:07.058Z,37.90
2018-04-10T09:22:11.469Z,38.00
2018-04-10T09:25:16.658Z,38.10
2018-04-10T09:28:21.083Z,37.90
2018-04-10T09:31:25.560Z,37.90
2018-04-10T09:34:30.056Z,38.10
2018-04-10T09:37:35.223Z,38.60
2018-04-10T09:40:39.654Z,38.60
2018-04-10T09:43:44.862Z,38.70
2018-04-10T09:46:49.265Z,38.70
2018-04-10T09:49:53.695Z,38.50
2018-04-10T09:52:58.111Z,38.60
2018-04-10T09:56:03.298Z,38.80
2018-04-10T09:59:07.700Z,38.80
2018-04-10T10:02:12.135Z,39.00
2018-04-10T10:05:18.317Z,38.70
2018-04-10T10:08:22.728Z,38.70
2018-04-10T10:11:27.205Z,38.20
2018-04-10T10:14:32.385Z,38.30
2018-04-10T10:17:36.829Z,38.20
2018-04-10T10:20:41.255Z,38.00
2018-04-10T10:23:49.466Z,37.60
2018-04-10T10:26:54.650Z,39.10
2018-04-10T10:29:59.202Z,39.00
2018-04-10T10:33:03.663Z,37.70
2018-04-10T10:36:08.095Z,37.30
2018-04-10T10:39:12.561Z,37.20
2018-04-10T10:42:16.970Z,36.90
2018-04-10T10:45:21.403Z,36.80
2018-04-10T10:48:25.821Z,37.40
2018-04-10T10:51:30.275Z,37.50
2018-04-10T10:54:34.726Z,37.90
2018-04-10T10:57:39.171Z,37.70
2018-04-10T11:00:43.629Z,37.00
2018-04-10T11:03:48.049Z,36.90
2018-04-10T11:06:52.522Z,36.50
2018-04-10T11:09:56.958Z,36.20
2018-04-10T11:13:01.377Z,36.20
2018-04-10T11:16:05.813Z,36.60
2018-04-10T11:19:10.228Z,35.90
2018-04-10T11:22:14.664Z,36.30
2018-04-10T11:25:19.628Z,36.60
2018-04-10T11:28:24.037Z,36.60
2018-04-10T11:31:28.478Z,36.60
2018-04-10T11:34:32.900Z,36.50
2018-04-10T11:37:38.083Z,36.00
2018-04-10T11:40:42.518Z,36.00
2018-04-10T11:43:46.937Z,36.20
2018-04-10T11:46:52.120Z,36.10
2018-04-10T11:49:56.522Z,36.10
2018-04-10T11:53:01.894Z,35.90
2018-04-10T11:56:06.332Z,35.90
2018-04-10T11:59:11.491Z,36.50
2018-04-10T12:02:15.934Z,36.50
2018-04-10T12:05:20.366Z,36.30
2018-04-10T12:08:25.537Z,36.20
2018-04-10T12:11:29.978Z,36.20
2018-04-10T12:14:34.396Z,36.20
2018-04-10T12:17:39.593Z,36.60
2018-04-10T12:20:44.026Z,36.50
2018-04-10T12:23:48.438Z,36.40
2018-04-10T12:26:52.873Z,36.50
2018-04-10T12:29:57.286Z,36.80
2018-04-10T12:33:01.710Z,36.80
2018-04-10T12:36:06.178Z,36.60
2018-04-10T12:39:11.348Z,36.80
2018-04-10T12:42:15.796Z,36.80
2018-04-10T12:45:20.193Z,36.90
2018-04-10T12:48:24.634Z,36.60
2018-04-10T12:51:29.078Z,36.70
2018-04-10T12:54:33.499Z,36.90
2018-04-10T12:57:37.959Z,36.50
2018-04-10T13:00:43.126Z,36.90
2018-04-10T13:03:48.300Z,36.80
2018-04-10T13:06:52.726Z,36.80
2018-04-10T13:09:57.907Z,37.00
2018-04-10T13:13:02.349Z,37.00
2018-04-10T13:16:06.781Z,37.20
2018-04-10T13:19:11.223Z,37.20
2018-04-10T13:22:15.658Z,37.30
2018-04-10T13:25:20.809Z,37.10
2018-04-10T13:28:25.238Z,36.60
2018-04-10T13:31:29.702Z,35.90
2018-04-10T13:34:34.142Z,35.70
2018-04-10T13:37:38.570Z,35.60
2018-04-10T13:40:43.008Z,35.40
2018-04-10T13:43:47.450Z,35.40
2018-04-10T13:46:51.912Z,35.20
2018-04-10T13:49:56.412Z,35.10
2018-04-10T13:53:01.611Z,34.90
2018-04-10T13:56:06.038Z,34.80
2018-04-10T13:59:10.486Z,34.90
2018-04-10T14:02:14.928Z,35.00
2018-04-10T14:05:20.042Z,35.10
2018-04-10T14:08:25.248Z,35.50
2018-04-10T14:11:29.709Z,35.50
2018-04-10T14:14:34.115Z,35.70
2018-04-10T14:17:38.556Z,36.20
2018-04-10T14:20:42.965Z,36.30
2018-04-10T14:23:47.396Z,36.50
2018-04-10T14:26:52.649Z,36.10
2018-04-10T14:29:57.064Z,36.10
2018-04-10T14:33:01.631Z,36.40
2018-04-10T14:36:06.790Z,36.40
2018-04-10T14:39:11.973Z,36.10
2018-04-10T14:42:16.586Z,36.00
2018-04-10T14:45:21.790Z,36.10
2018-04-10T14:48:26.222Z,36.10
2018-04-10T14:51:30.801Z,36.20
2018-04-10T14:54:35.235Z,35.90
2018-04-10T14:57:39.668Z,35.90
2018-04-10T15:00:44.082Z,36.30
2018-04-10T15:03:48.539Z,36.40
2018-04-10T15:06:53.153Z,36.40
2018-04-10T15:09:57.616Z,36.40
2018-04-10T15:13:02.649Z,36.40
2018-04-10T15:16:07.734Z,36.40
2018-04-10T15:19:12.167Z,36.40
2018-04-10T15:22:16.643Z,36.40
2018-04-10T15:25:21.057Z,36.40
2018-04-10T15:28:25.494Z,36.40
2018-04-10T15:31:29.923Z,36.40
2018-04-10T15:34:34.383Z,36.40
2018-04-10T15:37:38.834Z,36.40
2018-04-10T15:40:43.989Z,36.30
2018-04-10T15:43:49.172Z,36.30
2018-04-10T15:46:53.590Z,36.30
2018-04-10T15:49:58.842Z,36.90
2018-04-10T15:53:03.307Z,36.30
2018-04-10T15:56:07.741Z,36.20
2018-04-10T15:59:12.182Z,36.10
2018-04-10T16:02:17.366Z,35.70
2018-04-10T16:05:22.558Z,35.60
2018-04-10T16:08:27.095Z,35.60
2018-04-10T16:11:31.662Z,35.60
2018-04-10T16:14:36.501Z,35.40
2018-04-10T16:17:41.218Z,35.90
2018-04-10T16:20:46.517Z,35.90
2018-04-10T16:23:51.742Z,35.80
2018-04-10T16:26:56.217Z,35.80
2018-04-10T16:30:00.771Z,36.40
2018-04-10T16:33:05.257Z,36.50
2018-04-10T16:36:09.705Z,37.00
2018-04-10T16:39:14.191Z,36.50
2018-04-10T16:42:19.373Z,36.40
2018-04-10T16:45:23.825Z,36.40
2018-04-10T16:48:28.867Z,36.40
2018-04-10T16:51:34.128Z,36.10
2018-04-10T16:54:38.763Z,36.10
2018-04-10T16:57:43.241Z,36.10
2018-04-10T17:00:47.821Z,35.70
2018-04-10T17:03:53.016Z,34.50
2018-04-10T17:06:57.565Z,34.40
2018-04-10T17:10:02.357Z,34.40
2018-04-10T17:13:07.586Z,35.30
2018-04-10T17:16:12.092Z,35.10
2018-04-10T17:19:16.539Z,35.30
2018-04-10T17:22:21.017Z,35.10
2018-04-10T17:25:25.517Z,35.00
2018-04-10T17:28:31.093Z,34.90
2018-04-10T17:31:35.534Z,34.80
2018-04-10T17:34:40.048Z,34.60
2018-04-10T17:37:44.510Z,34.50
2018-04-10T17:40:48.996Z,34.40
2018-04-10T17:43:53.467Z,34.30
2018-04-10T17:46:58.643Z,34.20
2018-04-10T17:50:03.181Z,34.30
2018-04-10T17:53:07.642Z,34.20
2018-04-10T17:56:12.161Z,34.20
2018-04-10T17:59:16.609Z,34.20
2018-04-10T18:02:21.131Z,34.30
2018-04-10T18:05:26.397Z,34.20
2018-04-10T18:08:33.003Z,34.20
2018-04-10T18:11:37.519Z,34.10
2018-04-10T18:14:42.479Z,34.20
2018-04-10T18:17:47.014Z,34.50
2018-04-10T18:20:51.712Z,34.00
2018-04-10T18:23:56.174Z,34.30
2018-04-10T18:27:01.395Z,34.10
2018-04-10T18:30:05.876Z,34.00
2018-04-10T18:33:11.077Z,34.10
2018-04-10T18:36:15.536Z,34.10
2018-04-10T18:39:20.035Z,34.00
2018-04-10T18:42:24.463Z,34.10
2018-04-10T18:45:29.670Z,34.10
2018-04-10T18:48:34.162Z,34.40
2018-04-10T18:51:38.645Z,33.80
2018-04-10T18:54:43.216Z,33.80
2018-04-10T18:57:47.702Z,33.90
2018-04-10T19:00:52.252Z,33.90
2018-04-10T19:03:56.671Z,33.40
2018-04-10T19:07:01.915Z,33.60
2018-04-10T19:10:07.142Z,33.80
2018-04-10T19:13:11.569Z,33.90
2018-04-10T19:16:16.025Z,34.00
2018-04-10T19:19:20.507Z,33.70
2018-04-10T19:22:25.687Z,32.90
2018-04-10T19:25:30.124Z,32.80
2018-04-10T19:28:34.563Z,32.60
2018-04-10T19:31:39.025Z,32.40
2018-04-10T19:34:43.487Z,33.40
2018-04-10T19:37:47.913Z,32.60
2018-04-10T19:40:52.420Z,32.70
2018-04-10T19:43:56.811Z,31.90
2018-04-10T19:47:01.593Z,32.60
2018-04-10T19:50:06.119Z,32.70
2018-04-10T19:53:11.356Z,33.80
2018-04-10T19:56:15.794Z,33.80
2018-04-10T19:59:20.298Z,34.60
2018-04-10T20:02:24.832Z,34.30
2018-04-10T20:05:29.454Z,34.30
2018-04-10T20:08:33.966Z,34.30
2018-04-10T20:11:38.566Z,35.30
2018-04-10T20:14:43.118Z,35.30
2018-04-10T20:17:47.600Z,35.20
2018-04-10T20:20:52.806Z,34.90
2018-04-10T20:23:57.272Z,34.90
2018-04-10T20:27:01.836Z,34.90
2018-04-10T20:30:06.366Z,34.90
2018-04-10T20:33:10.871Z,34.90
2018-04-10T20:36:15.349Z,34.60
2018-04-10T20:39:19.856Z,34.50
2018-04-10T20:42:24.340Z,34.60
2018-04-10T20:45:28.866Z,34.50
2018-04-10T20:48:33.761Z,34.70
2018-04-10T20:51:38.523Z,34.70
2018-04-10T20:54:43.261Z,34.70
2018-04-10T20:57:47.791Z,34.70
2018-04-10T21:00:52.330Z,35.00
2018-04-10T21:03:56.837Z,35.30
2018-04-10T21:07:01.427Z,35.30
2018-04-10T21:10:05.976Z,35.30
2018-04-10T21:13:11.203Z,35.50
2018-04-10T21:16:15.712Z,35.50
2018-04-10T21:19:20.203Z,35.80
2018-04-10T21:22:24.662Z,35.20
2018-04-10T21:25:30.161Z,34.40
2018-04-10T21:28:35.124Z,34.80
2018-04-10T21:31:39.682Z,34.90
2018-04-10T21:34:44.308Z,35.20
2018-04-10T21:37:49.522Z,33.70
2018-04-10T21:40:54.033Z,33.60
2018-04-10T21:43:58.540Z,33.60
2018-04-10T21:47:03.309Z,33.20
2018-04-10T21:50:07.949Z,33.00
2018-04-10T21:53:13.237Z,32.90
2018-04-10T21:56:17.697Z,32.80
2018-04-10T21:59:22.209Z,33.00
2018-04-10T22:02:26.672Z,32.90
2018-04-10T22:05:31.829Z,33.70
2018-04-10T22:08:37.239Z,33.60
2018-04-10T22:11:42.544Z,33.40
2018-04-10T22:14:47.976Z,33.40
2018-04-10T22:17:52.641Z,33.40
2018-04-10T22:20:57.155Z,33.40
2018-04-10T22:24:01.794Z,33.60
2018-04-10T22:27:06.382Z,33.50
2018-04-10T22:30:11.125Z,33.00
2018-04-10T22:33:15.560Z,33.10
2018-04-10T22:36:20.970Z,32.60
2018-04-10T22:39:25.487Z,32.60
2018-04-10T22:42:30.237Z,32.60
2018-04-10T22:45:34.795Z,32.40
2018-04-10T22:48:39.353Z,32.90
2018-04-10T22:51:44.028Z,32.60
2018-04-10T22:54:49.255Z,32.40
2018-04-10T22:57:53.832Z,32.40
2018-04-10T23:00:58.333Z,32.10
2018-04-10T23:04:02.957Z,32.50
2018-04-10T23:07:07.607Z,32.40
2018-04-10T23:10:12.046Z,32.60
2018-04-10T23:13:16.513Z,32.20
2018-04-10T23:16:21.097Z,32.40
2018-04-10T23:19:25.564Z,32.50
2018-04-10T23:22:31.221Z,32.60
2018-04-10T23:25:36.555Z,32.50
2018-04-10T23:28:41.663Z,32.40
2018-04-10T23:31:47.237Z,32.50
2018-04-10T23:34:52.433Z,32.40
2018-04-10T23:37:56.978Z,32.20
2018-04-10T23:41:01.422Z,32.10
2018-04-10T23:44:05.887Z,32.20
2018-04-10T23:47:10.362Z,32.50
2018-04-10T23:50:14.792Z,32.50
2018-04-10T23:53:19.278Z,32.30
2018-04-10T23:56:23.712Z,32.60
2018-04-10T23:59:28.198Z,32.40
